createdAt,value
2019-04-22T00:00:06.628Z,1012.88
2019-04-22T00:01:19.778Z,1012.88
2019-04-22T00:02:12.826Z,1012.72
2019-04-22T00:03:14.454Z,1012.72
2019-04-22T00:04:26.979Z,1012.72
2019-04-22T00:05:39.560Z,1012.72
2019-04-22T00:07:03.193Z,1012.72
2019-04-22T00:08:05.170Z,1012.72
2019-04-22T00:09:40.260Z,1012.72
2019-04-22T00:11:04.934Z,1012.62
2019-04-22T00:13:10.946Z,1012.62
2019-04-22T00:13:39.134Z,1012.62
2019-04-22T00:15:02.180Z,1012.47
2019-04-22T00:17:19.884Z,1012.47
2019-04-22T00:18:22.367Z,1012.47
2019-04-22T00:19:22.700Z,1012.41
2019-04-22T00:20:14.755Z,1012.41
2019-04-22T00:21:19.734Z,1012.41
2019-04-22T00:22:18.596Z,1012.41
2019-04-22T00:23:04.038Z,1012.4
2019-04-22T00:26:04.037Z,1012.4
2019-04-22T00:27:03.865Z,1012.42
2019-04-22T00:28:08.515Z,1012.42
2019-04-22T00:29:26.925Z,1012.42
2019-04-22T00:29:49.825Z,1012.42
2019-04-22T00:32:05.510Z,1012.42
2019-04-22T00:33:04.797Z,1012.42
2019-04-22T00:34:57.667Z,1012.27
2019-04-22T00:36:08.772Z,1012.27
2019-04-22T00:37:11.294Z,1012.27
2019-04-22T00:38:05.699Z,1012.27
2019-04-22T00:39:07.469Z,1012.24
2019-04-22T00:39:40.950Z,1012.24
2019-04-22T00:41:05.845Z,1012.24
2019-04-22T00:42:15.130Z,1012.24
2019-04-22T00:43:15.424Z,1012.2
2019-04-22T00:44:12.272Z,1012.2
2019-04-22T00:45:24.907Z,1012.2
2019-04-22T00:46:02.203Z,1012.2
2019-04-22T00:47:16.360Z,1012.26
2019-04-22T00:48:14.453Z,1012.26
2019-04-22T00:49:54.863Z,1012.26
2019-04-22T00:50:49.096Z,1012.26
2019-04-22T00:52:16.549Z,1012.13
2019-04-22T00:53:19.690Z,1012.13
2019-04-22T00:54:18.044Z,1012.13
2019-04-22T00:55:23.436Z,1012.15
2019-04-22T00:58:12.321Z,1012.15
2019-04-22T00:59:01.518Z,1011.99
2019-04-22T00:59:42.843Z,1011.99
2019-04-22T01:01:20.482Z,1011.99
2019-04-22T01:03:24.064Z,1011.92
2019-04-22T01:04:04.363Z,1011.92
2019-04-22T01:05:18.399Z,1011.92
2019-04-22T01:09:11.246Z,1011.96
2019-04-22T01:09:58.853Z,1011.96
2019-04-22T01:11:17.162Z,1011.91
2019-04-22T01:12:13.499Z,1011.91
2019-04-22T01:13:06.430Z,1011.91
2019-04-22T01:14:06.448Z,1011.91
2019-04-22T01:15:10.656Z,1011.76
2019-04-22T01:17:07.978Z,1011.76
2019-04-22T01:18:03.948Z,1011.76
2019-04-22T01:20:23.179Z,1011.8
2019-04-22T01:22:02.858Z,1011.8
2019-04-22T01:22:36.320Z,1011.76
2019-04-22T01:25:06.853Z,1011.76
2019-04-22T01:25:29.458Z,1011.72
2019-04-22T01:26:53.806Z,1011.72
2019-04-22T01:27:46.066Z,1011.72
2019-04-22T01:28:46.415Z,1011.72
2019-04-22T01:29:39.580Z,1011.66
2019-04-22T01:30:32.680Z,1011.66
2019-04-22T01:31:19.514Z,1011.66
2019-04-22T01:32:15.352Z,1011.66
2019-04-22T01:33:23.859Z,1011.57
2019-04-22T01:34:36.355Z,1011.57
2019-04-22T01:35:34.563Z,1011.57
2019-04-22T01:40:05.412Z,1011.56
2019-04-22T01:41:23.432Z,1011.56
2019-04-22T01:42:18.682Z,1011.53
2019-04-22T01:43:14.748Z,1011.53
2019-04-22T01:44:29.087Z,1011.53
2019-04-22T01:44:40.539Z,1011.53
2019-04-22T01:45:39.214Z,1011.45
2019-04-22T01:47:21.290Z,1011.45
2019-04-22T01:47:40.611Z,1011.45
2019-04-22T01:49:19.155Z,1011.45
2019-04-22T01:50:10.275Z,1011.37
2019-04-22T01:52:18.629Z,1011.37
2019-04-22T01:52:38.264Z,1011.37
2019-04-22T01:54:22.270Z,1011.39
2019-04-22T01:54:41.505Z,1011.39
2019-04-22T01:55:36.945Z,1011.39
2019-04-22T01:57:03.647Z,1011.39
2019-04-22T01:58:09.463Z,1011.44
2019-04-22T01:58:57.408Z,1011.44
2019-04-22T01:59:55.143Z,1011.44
2019-04-22T02:01:04.651Z,1011.44
2019-04-22T02:02:05.359Z,1011.36
2019-04-22T02:03:19.840Z,1011.36
2019-04-22T02:05:17.687Z,1011.36
2019-04-22T02:07:35.545Z,1011.26
2019-04-22T02:09:10.916Z,1011.26
2019-04-22T02:10:11.119Z,1011.18
2019-04-22T02:11:17.671Z,1011.18
2019-04-22T02:12:21.098Z,1011.18
2019-04-22T02:13:17.101Z,1011.18
2019-04-22T02:14:17.501Z,1011.07
2019-04-22T02:14:41.939Z,1011.07
2019-04-22T02:15:46.517Z,1011.07
2019-04-22T02:17:17.659Z,1011.07
2019-04-22T02:18:17.992Z,1011.13
2019-04-22T02:19:24.413Z,1011.13
2019-04-22T02:20:19.767Z,1011.13
2019-04-22T02:21:01.498Z,1011.13
2019-04-22T02:23:45.164Z,1011
2019-04-22T02:25:18.577Z,1011
2019-04-22T02:26:25.332Z,1011.02
2019-04-22T02:27:10.504Z,1011.02
2019-04-22T02:28:34.241Z,1011.02
2019-04-22T02:29:27.286Z,1011.02
2019-04-22T02:30:05.446Z,1010.91
2019-04-22T02:31:38.060Z,1010.91
2019-04-22T02:32:27.610Z,1010.91
2019-04-22T02:33:08.624Z,1010.91
2019-04-22T02:34:32.912Z,1010.86
2019-04-22T02:35:42.784Z,1010.86
2019-04-22T02:36:23.052Z,1010.86
2019-04-22T02:38:44.630Z,1010.94
2019-04-22T02:39:42.442Z,1010.94
2019-04-22T02:39:43.098Z,1010.94
2019-04-22T02:40:56.355Z,1010.94
2019-04-22T02:41:44.448Z,1010.83
2019-04-22T02:43:33.969Z,1010.83
2019-04-22T02:43:51.442Z,1010.83
2019-04-22T02:44:31.370Z,1010.83
2019-04-22T02:46:54.661Z,1010.82
2019-04-22T02:47:36.516Z,1010.82
2019-04-22T02:48:26.071Z,1010.82
2019-04-22T02:49:25.166Z,1010.82
2019-04-22T02:50:15.742Z,1010.79
2019-04-22T02:51:17.221Z,1010.79
2019-04-22T02:52:09.455Z,1010.79
2019-04-22T02:53:23.018Z,1010.79
2019-04-22T02:54:15.301Z,1010.71
2019-04-22T02:55:04.912Z,1010.71
2019-04-22T02:57:26.141Z,1010.71
2019-04-22T02:58:35.684Z,1010.67
2019-04-22T02:59:28.432Z,1010.67
2019-04-22T03:00:35.378Z,1010.67
2019-04-22T03:01:41.305Z,1010.66
2019-04-22T03:01:44.939Z,1010.67
2019-04-22T03:02:54.595Z,1010.66
2019-04-22T03:04:18.482Z,1010.66
2019-04-22T03:05:06.812Z,1010.5
2019-04-22T03:06:32.838Z,1010.5
2019-04-22T03:06:39.796Z,1010.5
2019-04-22T03:08:30.275Z,1010.5
2019-04-22T03:08:51.730Z,1010.51
2019-04-22T03:10:18.789Z,1010.51
2019-04-22T03:12:29.231Z,1010.51
2019-04-22T03:13:25.276Z,1010.45
2019-04-22T03:13:46.830Z,1010.45
2019-04-22T03:15:03.367Z,1010.45
2019-04-22T03:16:28.768Z,1010.45
2019-04-22T03:16:48.891Z,1010.38
2019-04-22T03:18:27.364Z,1010.38
2019-04-22T03:19:34.073Z,1010.38
2019-04-22T03:20:29.009Z,1010.38
2019-04-22T03:21:07.759Z,1010.36
2019-04-22T03:22:16.804Z,1010.36
2019-04-22T03:23:22.464Z,1010.36
2019-04-22T03:24:40.581Z,1010.37
2019-04-22T03:25:51.707Z,1010.36
2019-04-22T03:26:14.063Z,1010.37
2019-04-22T03:27:16.289Z,1010.37
2019-04-22T03:28:08.527Z,1010.37
2019-04-22T03:29:18.105Z,1010.37
2019-04-22T03:30:06.096Z,1010.37
2019-04-22T03:31:10.930Z,1010.37
2019-04-22T03:32:24.567Z,1010.37
2019-04-22T03:33:09.511Z,1010.23
2019-04-22T03:35:19.855Z,1010.23
2019-04-22T03:35:31.722Z,1010.23
2019-04-22T03:37:21.446Z,1010.23
2019-04-22T03:37:50.445Z,1010.28
2019-04-22T03:39:45.671Z,1010.28
2019-04-22T03:39:52.927Z,1010.28
2019-04-22T03:42:34.520Z,1010.13
2019-04-22T03:43:35.786Z,1010.13
2019-04-22T03:44:38.842Z,1010.13
2019-04-22T03:44:49.519Z,1010.14
2019-04-22T03:46:50.949Z,1010.14
2019-04-22T03:48:08.020Z,1010.14
2019-04-22T03:49:39.238Z,1010
2019-04-22T03:50:25.908Z,1010
2019-04-22T03:51:38.796Z,1010
2019-04-22T03:52:30.985Z,1010
2019-04-22T03:53:09.772Z,1009.95
2019-04-22T03:55:26.623Z,1009.95
2019-04-22T03:57:04.947Z,1009.95
2019-04-22T03:57:57.321Z,1009.98
2019-04-22T03:58:23.794Z,1009.98
2019-04-22T03:59:36.948Z,1009.98
2019-04-22T03:59:48.136Z,1009.98
2019-04-22T04:01:44.526Z,1009.97
2019-04-22T04:01:53.690Z,1009.97
2019-04-22T04:03:25.420Z,1009.97
2019-04-22T04:04:24.196Z,1009.97
2019-04-22T04:05:49.286Z,1009.9
2019-04-22T04:05:54.146Z,1009.9
2019-04-22T04:07:40.651Z,1009.9
2019-04-22T04:07:47.907Z,1009.9
2019-04-22T04:09:33.872Z,1009.89
2019-04-22T04:10:27.818Z,1009.89
2019-04-22T04:11:29.902Z,1009.89
2019-04-22T04:11:52.159Z,1009.89
2019-04-22T04:12:53.853Z,1009.9
2019-04-22T04:14:33.491Z,1009.9
2019-04-22T04:15:26.622Z,1009.9
2019-04-22T04:16:19.233Z,1009.9
2019-04-22T04:17:20.659Z,1009.91
2019-04-22T04:17:50.539Z,1009.91
2019-04-22T04:19:34.769Z,1009.91
2019-04-22T04:20:39.418Z,1009.91
2019-04-22T04:21:26.626Z,1009.88
2019-04-22T04:22:26.739Z,1009.88
2019-04-22T04:23:50.268Z,1009.88
2019-04-22T04:25:12.242Z,1009.88
2019-04-22T04:25:42.208Z,1009.84
2019-04-22T04:25:48.361Z,1009.84
2019-04-22T04:27:53.822Z,1009.84
2019-04-22T04:28:10.843Z,1009.84
2019-04-22T04:29:05.978Z,1009.76
2019-04-22T04:30:31.332Z,1009.76
2019-04-22T04:31:25.389Z,1009.76
2019-04-22T04:31:40.971Z,1009.76
2019-04-22T04:33:36.028Z,1009.75
2019-04-22T04:34:55.842Z,1009.75
2019-04-22T04:35:58.719Z,1009.75
2019-04-22T04:36:41.877Z,1009.81
2019-04-22T04:38:37.858Z,1009.81
2019-04-22T04:39:34.907Z,1009.81
2019-04-22T04:40:23.174Z,1009.81
2019-04-22T04:41:24.891Z,1009.61
2019-04-22T04:41:51.922Z,1009.61
2019-04-22T04:43:42.060Z,1009.61
2019-04-22T04:44:04.399Z,1009.61
2019-04-22T04:45:00.896Z,1009.69
2019-04-22T04:46:02.554Z,1009.69
2019-04-22T04:47:11.577Z,1009.69
2019-04-22T04:47:51.053Z,1009.73
2019-04-22T04:48:53.757Z,1009.73
2019-04-22T04:50:15.852Z,1009.73
2019-04-22T04:51:37.746Z,1009.73
2019-04-22T04:52:53.949Z,1009.65
2019-04-22T04:53:02.326Z,1009.65
2019-04-22T04:54:14.343Z,1009.65
2019-04-22T04:55:38.225Z,1009.65
2019-04-22T04:56:36.080Z,1009.74
2019-04-22T04:57:31.350Z,1009.74
2019-04-22T04:58:47.364Z,1009.74
2019-04-22T05:00:00.055Z,1009.74
2019-04-22T05:00:48.641Z,1009.75
2019-04-22T05:01:35.186Z,1009.75
2019-04-22T05:01:44.990Z,1009.75
2019-04-22T05:02:53.003Z,1009.75
2019-04-22T05:03:57.201Z,1009.59
2019-04-22T05:04:59.275Z,1009.59
2019-04-22T05:06:25.338Z,1009.59
2019-04-22T05:07:36.298Z,1009.59
2019-04-22T05:07:43.527Z,1009.63
2019-04-22T05:09:36.148Z,1009.63
2019-04-22T05:09:40.783Z,1009.63
2019-04-22T05:10:53.695Z,1009.63
2019-04-22T05:11:54.334Z,1009.68
2019-04-22T05:13:26.685Z,1009.68
2019-04-22T05:14:17.181Z,1009.68
2019-04-22T05:15:11.998Z,1009.68
2019-04-22T05:16:43.043Z,1009.68
2019-04-22T05:17:13.001Z,1009.68
2019-04-22T05:18:33.524Z,1009.68
2019-04-22T05:18:49.211Z,1009.68
2019-04-22T05:20:14.914Z,1009.66
2019-04-22T05:21:31.350Z,1009.66
2019-04-22T05:21:31.354Z,1009.66
2019-04-22T05:22:40.009Z,1009.66
2019-04-22T05:24:15.253Z,1009.66
2019-04-22T05:25:19.294Z,1009.66
2019-04-22T05:26:12.639Z,1009.66
2019-04-22T05:27:13.483Z,1009.66
2019-04-22T05:28:20.510Z,1009.65
2019-04-22T05:29:20.708Z,1009.65
2019-04-22T05:30:23.426Z,1009.65
2019-04-22T05:31:01.766Z,1009.65
2019-04-22T05:32:17.611Z,1009.67
2019-04-22T05:33:08.433Z,1009.67
2019-04-22T05:35:15.192Z,1009.67
2019-04-22T05:37:14.870Z,1009.71
2019-04-22T05:38:20.147Z,1009.71
2019-04-22T05:39:06.486Z,1009.71
2019-04-22T05:40:14.012Z,1009.61
2019-04-22T05:41:36.299Z,1009.61
2019-04-22T05:42:56.371Z,1009.61
2019-04-22T05:44:14.670Z,1009.7
2019-04-22T05:46:05.814Z,1009.7
2019-04-22T05:46:35.400Z,1009.7
2019-04-22T05:48:02.910Z,1009.64
2019-04-22T05:49:18.061Z,1009.64
2019-04-22T05:50:02.255Z,1009.64
2019-04-22T05:52:14.986Z,1009.59
2019-04-22T05:53:01.816Z,1009.59
2019-04-22T05:54:14.611Z,1009.59
2019-04-22T05:55:09.658Z,1009.59
2019-04-22T05:56:13.991Z,1009.61
2019-04-22T05:58:02.848Z,1009.61
2019-04-22T05:59:14.720Z,1009.61
2019-04-22T05:59:39.604Z,1009.57
2019-04-22T06:01:03.970Z,1009.57
2019-04-22T06:01:43.508Z,1009.57
2019-04-22T06:03:16.465Z,1009.57
2019-04-22T06:04:11.554Z,1009.71
2019-04-22T06:05:03.781Z,1009.71
2019-04-22T06:05:47.652Z,1009.71
2019-04-22T06:06:29.262Z,1009.71
2019-04-22T06:08:05.086Z,1009.63
2019-04-22T06:09:12.623Z,1009.63
2019-04-22T06:11:09.655Z,1009.63
2019-04-22T06:11:34.004Z,1009.57
2019-04-22T06:14:01.942Z,1009.57
2019-04-22T06:15:15.738Z,1009.57
2019-04-22T06:15:42.659Z,1009.71
2019-04-22T06:17:10.589Z,1009.71
2019-04-22T06:17:37.943Z,1009.71
2019-04-22T06:20:02.278Z,1009.62
2019-04-22T06:22:12.872Z,1009.62
2019-04-22T06:23:18.743Z,1009.62
2019-04-22T06:23:42.438Z,1009.66
2019-04-22T06:25:01.034Z,1009.66
2019-04-22T06:26:39.473Z,1009.66
2019-04-22T06:27:30.792Z,1009.66
2019-04-22T06:28:22.240Z,1009.62
2019-04-22T06:29:19.715Z,1009.62
2019-04-22T06:30:07.720Z,1009.62
2019-04-22T06:31:15.974Z,1009.62
2019-04-22T06:31:49.753Z,1009.63
2019-04-22T06:32:43.224Z,1009.63
2019-04-22T06:34:17.793Z,1009.63
2019-04-22T06:35:16.683Z,1009.56
2019-04-22T06:35:36.367Z,1009.56
2019-04-22T06:37:20.554Z,1009.56
2019-04-22T06:38:30.453Z,1009.56
2019-04-22T06:38:46.171Z,1009.52
2019-04-22T06:39:40.103Z,1009.52
2019-04-22T06:41:25.218Z,1009.52
2019-04-22T06:42:04.348Z,1009.52
2019-04-22T06:43:08.796Z,1009.46
2019-04-22T06:43:35.529Z,1009.46
2019-04-22T06:44:36.206Z,1009.46
2019-04-22T06:45:35.052Z,1009.46
2019-04-22T06:47:10.449Z,1009.61
2019-04-22T06:48:19.225Z,1009.61
2019-04-22T06:49:35.606Z,1009.61
2019-04-22T06:52:07.998Z,1009.63
2019-04-22T06:53:13.186Z,1009.63
2019-04-22T06:53:37.550Z,1009.63
2019-04-22T06:55:13.228Z,1009.61
2019-04-22T06:56:01.224Z,1009.61
2019-04-22T06:57:04.317Z,1009.61
2019-04-22T06:59:14.742Z,1009.72
2019-04-22T07:02:16.471Z,1009.72
2019-04-22T07:03:39.914Z,1009.52
2019-04-22T07:03:50.621Z,1009.52
2019-04-22T07:04:49.503Z,1009.52
2019-04-22T07:06:12.707Z,1009.52
2019-04-22T07:07:02.272Z,1009.52
2019-04-22T07:08:30.740Z,1009.52
2019-04-22T07:09:48.776Z,1009.52
2019-04-22T07:11:01.626Z,1009.55
2019-04-22T07:14:10.451Z,1009.55
2019-04-22T07:15:09.880Z,1009.52
2019-04-22T07:16:26.112Z,1009.52
2019-04-22T07:16:39.339Z,1009.52
2019-04-22T07:18:21.227Z,1009.52
2019-04-22T07:19:18.409Z,1009.56
2019-04-22T07:20:04.050Z,1009.56
2019-04-22T07:21:01.349Z,1009.56
2019-04-22T07:23:19.157Z,1009.56
2019-04-22T07:24:28.304Z,1009.56
2019-04-22T07:25:23.395Z,1009.56
2019-04-22T07:25:37.907Z,1009.56
2019-04-22T07:27:04.614Z,1009.55
2019-04-22T07:30:03.537Z,1009.55
2019-04-22T07:32:07.802Z,1009.51
2019-04-22T07:33:34.257Z,1009.51
2019-04-22T07:33:39.308Z,1009.51
2019-04-22T07:35:07.877Z,1009.52
2019-04-22T07:36:30.916Z,1009.52
2019-04-22T07:37:31.848Z,1009.52
2019-04-22T07:38:43.907Z,1009.33
2019-04-22T07:39:58.264Z,1009.33
2019-04-22T07:41:17.140Z,1009.33
2019-04-22T07:42:05.241Z,1009.33
2019-04-22T07:42:36.563Z,1009.46
2019-04-22T07:44:24.181Z,1009.46
2019-04-22T07:45:10.213Z,1009.46
2019-04-22T07:47:13.956Z,1009.36
2019-04-22T07:48:26.777Z,1009.36
2019-04-22T07:49:10.575Z,1009.36
2019-04-22T07:50:26.737Z,1009.36
2019-04-22T07:51:13.439Z,1009.34
2019-04-22T07:52:01.417Z,1009.34
2019-04-22T07:52:34.857Z,1009.34
2019-04-22T07:55:02.593Z,1009.26
2019-04-22T07:57:09.737Z,1009.26
2019-04-22T07:58:01.882Z,1009.26
2019-04-22T07:58:35.558Z,1009.3
2019-04-22T07:59:35.226Z,1009.3
2019-04-22T08:01:14.117Z,1009.3
2019-04-22T08:02:09.424Z,1009.3
2019-04-22T08:02:37.703Z,1009.29
2019-04-22T08:04:11.516Z,1009.29
2019-04-22T08:04:49.799Z,1009.29
2019-04-22T08:05:47.682Z,1009.29
2019-04-22T08:07:16.116Z,1009.17
2019-04-22T08:09:15.147Z,1009.17
2019-04-22T08:10:17.100Z,1009.17
2019-04-22T08:10:43.161Z,1009.23
2019-04-22T08:11:51.246Z,1009.23
2019-04-22T08:12:39.037Z,1009.23
2019-04-22T08:15:01.951Z,1009.32
2019-04-22T08:16:10.700Z,1009.32
2019-04-22T08:17:19.265Z,1009.32
2019-04-22T08:18:28.276Z,1009.3
2019-04-22T08:19:10.611Z,1009.3
2019-04-22T08:20:09.238Z,1009.3
2019-04-22T08:21:07.535Z,1009.3
2019-04-22T08:23:09.296Z,1009.33
2019-04-22T08:23:56.921Z,1009.33
2019-04-22T08:25:00.258Z,1009.33
2019-04-22T08:26:00.769Z,1009.31
2019-04-22T08:27:11.282Z,1009.31
2019-04-22T08:28:05.745Z,1009.31
2019-04-22T08:29:20.346Z,1009.31
2019-04-22T08:29:47.015Z,1009.23
2019-04-22T08:30:42.991Z,1009.23
2019-04-22T08:31:35.682Z,1009.23
2019-04-22T08:33:09.623Z,1009.23
2019-04-22T08:34:12.098Z,1009.46
2019-04-22T08:34:55.639Z,1009.46
2019-04-22T08:35:56.711Z,1009.46
2019-04-22T08:37:25.371Z,1009.46
2019-04-22T08:37:57.528Z,1009.1
2019-04-22T08:39:04.165Z,1009.1
2019-04-22T08:40:04.221Z,1009.1
2019-04-22T08:40:36.398Z,1009.1
2019-04-22T08:42:16.405Z,1009.18
2019-04-22T08:43:32.964Z,1009.18
2019-04-22T08:44:26.185Z,1009.18
2019-04-22T08:45:25.025Z,1009.18
2019-04-22T08:46:40.402Z,1009.1
2019-04-22T08:47:36.120Z,1009.1
2019-04-22T08:49:13.055Z,1009.1
2019-04-22T08:50:07.659Z,1009.17
2019-04-22T08:51:08.799Z,1009.17
2019-04-22T08:51:58.816Z,1009.17
2019-04-22T08:53:20.038Z,1009.17
2019-04-22T08:55:40.453Z,1009.09
2019-04-22T08:57:11.054Z,1009.09
2019-04-22T08:58:27.350Z,1009.12
2019-04-22T08:59:12.415Z,1009.12
2019-04-22T09:00:02.817Z,1009.12
2019-04-22T09:01:17.458Z,1009.12
2019-04-22T09:01:33.019Z,1009.09
2019-04-22T09:03:04.654Z,1009.09
2019-04-22T09:04:10.082Z,1009.09
2019-04-22T09:04:53.461Z,1009.09
2019-04-22T09:06:47.985Z,1008.93
2019-04-22T09:07:26.499Z,1008.93
2019-04-22T09:07:52.688Z,1008.93
2019-04-22T09:09:00.923Z,1008.93
2019-04-22T09:10:15.628Z,1008.96
2019-04-22T09:12:07.918Z,1008.96
2019-04-22T09:13:17.069Z,1008.96
2019-04-22T09:14:14.077Z,1008.95
2019-04-22T09:15:08.168Z,1008.95
2019-04-22T09:16:21.450Z,1008.95
2019-04-22T09:16:37.759Z,1008.95
2019-04-22T09:18:08.652Z,1008.86
2019-04-22T09:19:12.266Z,1008.86
2019-04-22T09:19:56.637Z,1008.86
2019-04-22T09:21:15.519Z,1008.86
2019-04-22T09:22:12.274Z,1008.84
2019-04-22T09:22:59.053Z,1008.84
2019-04-22T09:24:16.677Z,1008.84
2019-04-22T09:26:09.530Z,1008.84
2019-04-22T09:30:26.011Z,1008.85
2019-04-22T09:31:06.708Z,1008.85
2019-04-22T09:32:06.920Z,1008.85
2019-04-22T09:33:06.116Z,1008.85
2019-04-22T09:33:59.104Z,1008.76
2019-04-22T09:35:03.429Z,1008.76
2019-04-22T09:36:23.019Z,1008.76
2019-04-22T09:37:11.692Z,1008.76
2019-04-22T09:38:31.460Z,1008.62
2019-04-22T09:38:45.044Z,1008.62
2019-04-22T09:40:10.611Z,1008.62
2019-04-22T09:41:14.113Z,1008.62
2019-04-22T09:42:14.536Z,1008.67
2019-04-22T09:43:01.004Z,1008.67
2019-04-22T09:44:14.835Z,1008.67
2019-04-22T09:45:10.208Z,1008.67
2019-04-22T09:47:07.950Z,1008.58
2019-04-22T09:48:09.097Z,1008.58
2019-04-22T09:49:23.316Z,1008.58
2019-04-22T09:49:58.435Z,1008.61
2019-04-22T09:51:06.973Z,1008.61
2019-04-22T09:52:11.621Z,1008.61
2019-04-22T09:53:08.689Z,1008.61
2019-04-22T09:54:07.037Z,1008.46
2019-04-22T09:55:03.104Z,1008.46
2019-04-22T09:56:42.163Z,1008.46
2019-04-22T09:58:09.692Z,1008.45
2019-04-22T10:00:16.947Z,1008.45
2019-04-22T10:01:18.824Z,1008.44
2019-04-22T10:01:38.516Z,1008.44
2019-04-22T10:03:16.551Z,1008.44
2019-04-22T10:04:14.336Z,1008.44
2019-04-22T10:05:09.413Z,1008.35
2019-04-22T10:06:38.152Z,1008.35
2019-04-22T10:09:29.853Z,1008.26
2019-04-22T10:10:15.046Z,1008.26
2019-04-22T10:10:34.841Z,1008.26
2019-04-22T10:13:45.625Z,1008.29
2019-04-22T10:13:52.578Z,1008.29
2019-04-22T10:16:20.269Z,1008.29
2019-04-22T10:17:02.955Z,1008.23
2019-04-22T10:18:09.766Z,1008.23
2019-04-22T10:19:39.368Z,1008.23
2019-04-22T10:23:12.659Z,1008.13
2019-04-22T10:23:57.956Z,1008.13
2019-04-22T10:24:29.678Z,1008.15
2019-04-22T10:28:53.269Z,1008.05
2019-04-22T10:30:45.921Z,1008.05
2019-04-22T10:32:06.766Z,1008.05
2019-04-22T10:32:59.425Z,1007.95
2019-04-22T10:33:49.472Z,1007.95
2019-04-22T10:34:36.015Z,1007.95
2019-04-22T10:35:17.246Z,1007.95
2019-04-22T10:36:03.512Z,1008.01
2019-04-22T10:37:14.457Z,1008.01
2019-04-22T10:38:03.845Z,1008.01
2019-04-22T10:39:04.216Z,1008.01
2019-04-22T10:40:11.215Z,1007.88
2019-04-22T10:41:03.107Z,1007.88
2019-04-22T10:42:03.289Z,1007.88
2019-04-22T10:43:03.515Z,1007.88
2019-04-22T10:44:05.782Z,1007.84
2019-04-22T10:45:02.036Z,1007.84
2019-04-22T10:46:02.355Z,1007.84
2019-04-22T10:47:02.524Z,1007.84
2019-04-22T10:48:01.966Z,1007.83
2019-04-22T10:49:02.330Z,1007.83
2019-04-22T10:50:04.491Z,1007.83
2019-04-22T10:51:02.588Z,1007.83
2019-04-22T10:52:03.018Z,1007.87
2019-04-22T10:53:01.969Z,1007.87
2019-04-22T10:54:02.190Z,1007.87
2019-04-22T10:55:03.752Z,1007.87
2019-04-22T10:56:05.055Z,1007.71
2019-04-22T10:57:03.573Z,1007.71
2019-04-22T10:58:02.687Z,1007.71
2019-04-22T10:59:02.911Z,1007.71
2019-04-22T11:00:05.272Z,1007.73
2019-04-22T11:01:03.714Z,1007.73
2019-04-22T11:02:03.736Z,1007.73
2019-04-22T11:03:02.669Z,1007.73
2019-04-22T11:04:01.829Z,1007.72
2019-04-22T11:05:02.359Z,1007.72
2019-04-22T11:06:03.623Z,1007.72
2019-04-22T11:07:11.040Z,1007.72
2019-04-22T11:08:09.547Z,1007.72
2019-04-22T11:09:06.742Z,1007.72
2019-04-22T11:10:48.442Z,1007.72
2019-04-22T11:11:37.561Z,1007.72
2019-04-22T11:12:18.646Z,1007.58
2019-04-22T11:13:03.237Z,1007.58
2019-04-22T11:14:02.260Z,1007.58
2019-04-22T11:15:03.799Z,1007.58
2019-04-22T11:16:01.669Z,1007.5
2019-04-22T11:17:06.907Z,1007.5
2019-04-22T11:18:02.271Z,1007.5
2019-04-22T11:19:03.819Z,1007.5
2019-04-22T11:20:04.103Z,1007.56
2019-04-22T11:21:02.277Z,1007.56
2019-04-22T11:22:22.037Z,1007.56
2019-04-22T11:23:02.979Z,1007.56
2019-04-22T11:24:03.267Z,1007.34
2019-04-22T11:25:03.937Z,1007.34
2019-04-22T11:26:04.202Z,1007.34
2019-04-22T11:27:05.194Z,1007.34
2019-04-22T11:28:02.511Z,1007.4
2019-04-22T11:29:05.374Z,1007.4
2019-04-22T11:30:05.715Z,1007.4
2019-04-22T11:31:03.022Z,1007.4
2019-04-22T11:32:02.480Z,1007.28
2019-04-22T11:33:02.920Z,1007.28
2019-04-22T11:34:03.060Z,1007.28
2019-04-22T11:35:05.838Z,1007.28
2019-04-22T11:36:03.750Z,1007.32
2019-04-22T11:37:03.563Z,1007.32
2019-04-22T11:38:02.316Z,1007.32
2019-04-22T11:39:10.776Z,1007.32
2019-04-22T11:40:25.434Z,1007.22
2019-04-22T11:41:05.415Z,1007.22
2019-04-22T11:42:02.806Z,1007.22
2019-04-22T11:43:03.912Z,1007.22
2019-04-22T11:44:03.041Z,1007.25
2019-04-22T11:45:03.870Z,1007.25
2019-04-22T11:46:07.196Z,1007.25
2019-04-22T11:47:03.757Z,1007.23
2019-04-22T11:48:03.921Z,1007.23
2019-04-22T11:49:01.647Z,1007.23
2019-04-22T11:50:03.741Z,1007.23
2019-04-22T11:51:02.321Z,1007.07
2019-04-22T11:52:08.810Z,1007.07
2019-04-22T11:53:03.089Z,1007.07
2019-04-22T11:54:03.363Z,1007.07
2019-04-22T11:55:02.290Z,1006.98
2019-04-22T11:56:04.635Z,1006.98
2019-04-22T11:57:03.366Z,1006.98
2019-04-22T11:58:03.424Z,1006.98
2019-04-22T11:59:03.018Z,1007.05
2019-04-22T12:00:05.277Z,1007.05
2019-04-22T12:01:03.490Z,1007.05
2019-04-22T12:02:02.856Z,1007.05
2019-04-22T12:03:05.057Z,1006.97
2019-04-22T12:04:03.971Z,1006.97
2019-04-22T12:05:08.280Z,1006.97
2019-04-22T12:06:03.833Z,1006.97
2019-04-22T12:07:02.462Z,1006.88
2019-04-22T12:08:03.265Z,1006.88
2019-04-22T12:09:05.634Z,1006.88
2019-04-22T12:10:32.780Z,1006.88
2019-04-22T12:11:07.905Z,1006.94
2019-04-22T12:12:03.767Z,1006.94
2019-04-22T12:13:03.647Z,1006.94
2019-04-22T12:14:04.134Z,1006.94
2019-04-22T12:15:01.929Z,1006.92
2019-04-22T12:16:03.552Z,1006.92
2019-04-22T12:17:03.899Z,1006.92
2019-04-22T12:18:04.057Z,1006.92
2019-04-22T12:19:04.937Z,1006.94
2019-04-22T12:20:10.465Z,1006.94
2019-04-22T12:21:05.350Z,1006.94
2019-04-22T12:22:03.228Z,1006.94
2019-04-22T12:23:04.998Z,1006.84
2019-04-22T12:24:03.334Z,1006.84
2019-04-22T12:25:02.253Z,1006.84
2019-04-22T12:26:14.112Z,1006.84
2019-04-22T12:27:02.583Z,1006.64
2019-04-22T12:28:05.611Z,1006.64
2019-04-22T12:29:04.695Z,1006.64
2019-04-22T12:30:03.280Z,1006.64
2019-04-22T12:31:04.117Z,1006.68
2019-04-22T12:32:03.195Z,1006.68
2019-04-22T12:33:04.271Z,1006.68
2019-04-22T12:34:03.549Z,1006.68
2019-04-22T12:35:02.394Z,1006.7
2019-04-22T12:36:04.520Z,1006.7
2019-04-22T12:37:02.978Z,1006.7
2019-04-22T12:38:10.683Z,1006.7
2019-04-22T12:39:03.607Z,1006.69
2019-04-22T12:40:04.207Z,1006.69
2019-04-22T12:41:11.469Z,1006.69
2019-04-22T12:42:04.371Z,1006.69
2019-04-22T12:43:09.898Z,1006.56
2019-04-22T12:44:05.100Z,1006.56
2019-04-22T12:45:04.234Z,1006.56
2019-04-22T12:46:02.849Z,1006.56
2019-04-22T12:47:07.433Z,1006.55
2019-04-22T12:48:04.262Z,1006.55
2019-04-22T12:49:02.711Z,1006.55
2019-04-22T12:50:25.561Z,1006.55
2019-04-22T12:51:03.299Z,1006.55
2019-04-22T12:52:05.130Z,1006.55
2019-04-22T12:53:14.319Z,1006.55
2019-04-22T12:54:03.236Z,1006.55
2019-04-22T12:55:04.141Z,1006.56
2019-04-22T12:56:03.290Z,1006.56
2019-04-22T12:57:03.973Z,1006.56
2019-04-22T12:58:07.605Z,1006.56
2019-04-22T12:59:05.564Z,1006.39
2019-04-22T13:00:06.096Z,1006.39
2019-04-22T13:01:03.689Z,1006.39
2019-04-22T13:02:05.241Z,1006.39
2019-04-22T13:03:03.039Z,1006.42
2019-04-22T13:04:11.781Z,1006.42
2019-04-22T13:05:01.957Z,1006.42
2019-04-22T13:06:03.642Z,1006.42
2019-04-22T13:07:03.820Z,1006.36
2019-04-22T13:08:02.566Z,1006.36
2019-04-22T13:09:02.499Z,1006.36
2019-04-22T13:10:01.880Z,1006.36
2019-04-22T13:11:15.950Z,1006.32
2019-04-22T13:12:03.761Z,1006.32
2019-04-22T13:13:03.185Z,1006.32
2019-04-22T13:14:03.429Z,1006.32
2019-04-22T13:15:07.845Z,1006.25
2019-04-22T13:16:04.609Z,1006.25
2019-04-22T13:17:03.937Z,1006.25
2019-04-22T13:18:30.991Z,1006.25
2019-04-22T13:19:13.158Z,1006.13
2019-04-22T13:20:02.987Z,1006.13
2019-04-22T13:21:04.598Z,1006.13
2019-04-22T13:22:03.223Z,1006.13
2019-04-22T13:23:03.926Z,1006
2019-04-22T13:24:03.056Z,1006
2019-04-22T13:25:03.968Z,1006
2019-04-22T13:26:03.461Z,1006
2019-04-22T13:27:03.201Z,1006.05
2019-04-22T13:28:04.882Z,1006.05
2019-04-22T13:29:04.837Z,1006.05
2019-04-22T13:30:07.886Z,1005.98
2019-04-22T13:31:05.661Z,1005.98
2019-04-22T13:32:02.868Z,1005.98
2019-04-22T13:33:04.990Z,1005.98
2019-04-22T13:34:09.470Z,1005.92